sensor_id;sensor_type;location;lat;lon;timestamp;temperature;humidity
48376;DHT22;34178;50.904;11.560;2023-07-29T00:00:56;18.90;99.90
48376;DHT22;34178;50.904;11.560;2023-07-29T00:03:22;18.90;99.90
48376;DHT22;34178;50.904;11.560;2023-07-29T00:05:48;18.90;99.90
48376;DHT22;34178;50.904;11.560;2023-07-29T00:08:13;18.90;99.90
48376;DHT22;34178;50.904;11.560;2023-07-29T00:10:39;18.80;99.90
48376;DHT22;34178;50.904;11.560;2023-07-29T00:13:05;18.70;99.90
48376;DHT22;34178;50.904;11.560;2023-07-29T00:15:32;18.60;99.90
48376;DHT22;34178;50.904;11.560;2023-07-29T00:17:57;18.60;99.90
48376;DHT22;34178;50.904;11.560;2023-07-29T00:20:23;18.60;99.90
48376;DHT22;34178;50.904;11.560;2023-07-29T00:22:49;18.50;99.90
48376;DHT22;34178;50.904;11.560;2023-07-29T00:25:21;18.40;99.90
48376;DHT22;34178;50.904;11.560;2023-07-29T00:27:47;18.40;99.90
48376;DHT22;34178;50.904;11.560;2023-07-29T00:30:13;18.40;99.90
48376;DHT22;34178;50.904;11.560;2023-07-29T00:32:38;18.40;99.90
48376;DHT22;34178;50.904;11.560;2023-07-29T00:35:04;18.40;99.90
48376;DHT22;34178;50.904;11.560;2023-07-29T00:37:30;18.40;99.90
48376;DHT22;34178;50.904;11.560;2023-07-29T00:39:57;18.50;99.90
48376;DHT22;34178;50.904;11.560;2023-07-29T00:42:23;18.50;99.90
48376;DHT22;34178;50.904;11.560;2023-07-29T00:44:49;18.50;99.90
48376;DHT22;34178;50.904;11.560;2023-07-29T00:47:15;18.60;99.90
48376;DHT22;34178;50.904;11.560;2023-07-29T00:49:45;18.50;99.90
48376;DHT22;34178;50.904;11.560;2023-07-29T00:52:11;18.40;99.90
48376;DHT22;34178;50.904;11.560;2023-07-29T00:54:40;18.40;99.90
48376;DHT22;34178;50.904;11.560;2023-07-29T00:57:08;18.30;99.90
48376;DHT22;34178;50.904;11.560;2023-07-29T00:59:35;18.30;99.90
48376;DHT22;34178;50.904;11.560;2023-07-29T01:02:02;18.20;99.90
48376;DHT22;34178;50.904;11.560;2023-07-29T01:04:28;18.20;99.90
48376;DHT22;34178;50.904;11.560;2023-07-29T01:07:03;18.20;99.90
48376;DHT22;34178;50.904;11.560;2023-07-29T01:09:41;18.10;99.90
48376;DHT22;34178;50.904;11.560;2023-07-29T01:12:22;18.00;99.90
48376;DHT22;34178;50.904;11.560;2023-07-29T01:15:25;18.00;99.90
48376;DHT22;34178;50.904;11.560;2023-07-29T01:17:58;17.90;99.90
48376;DHT22;34178;50.904;11.560;2023-07-29T01:20:25;17.90;99.90
48376;DHT22;34178;50.904;11.560;2023-07-29T01:22:51;17.90;99.90
48376;DHT22;34178;50.904;11.560;2023-07-29T01:25:17;17.80;99.90
48376;DHT22;34178;50.904;11.560;2023-07-29T01:27:45;17.80;99.90
48376;DHT22;34178;50.904;11.560;2023-07-29T01:30:11;17.70;99.90
48376;DHT22;34178;50.904;11.560;2023-07-29T01:32:57;17.60;99.90
48376;DHT22;34178;50.904;11.560;2023-07-29T01:35:33;17.70;99.90
48376;DHT22;34178;50.904;11.560;2023-07-29T01:38:07;17.60;99.90
48376;DHT22;34178;50.904;11.560;2023-07-29T01:40:35;17.60;99.90
48376;DHT22;34178;50.904;11.560;2023-07-29T01:43:01;17.50;99.90
48376;DHT22;34178;50.904;11.560;2023-07-29T01:45:28;17.50;99.90
48376;DHT22;34178;50.904;11.560;2023-07-29T01:47:58;17.50;99.90
48376;DHT22;34178;50.904;11.560;2023-07-29T01:50:24;17.50;99.90
48376;DHT22;34178;50.904;11.560;2023-07-29T01:52:49;17.50;99.90
48376;DHT22;34178;50.904;11.560;2023-07-29T01:55:15;17.40;99.90
48376;DHT22;34178;50.904;11.560;2023-07-29T01:57:41;17.30;99.90
48376;DHT22;34178;50.904;11.560;2023-07-29T02:00:07;17.30;99.90
48376;DHT22;34178;50.904;11.560;2023-07-29T02:02:33;17.30;99.90
48376;DHT22;34178;50.904;11.560;2023-07-29T02:04:59;17.20;99.90
48376;DHT22;34178;50.904;11.560;2023-07-29T02:07:24;17.10;99.90
48376;DHT22;34178;50.904;11.560;2023-07-29T02:09:51;17.10;99.90
48376;DHT22;34178;50.904;11.560;2023-07-29T02:12:17;17.00;99.90
48376;DHT22;34178;50.904;11.560;2023-07-29T02:14:43;17.00;99.90
48376;DHT22;34178;50.904;11.560;2023-07-29T02:17:08;17.00;99.90
48376;DHT22;34178;50.904;11.560;2023-07-29T02:19:34;17.00;99.90
48376;DHT22;34178;50.904;11.560;2023-07-29T02:22:00;16.90;99.90
48376;DHT22;34178;50.904;11.560;2023-07-29T02:24:26;16.90;99.90
48376;DHT22;34178;50.904;11.560;2023-07-29T02:26:51;16.80;99.90
48376;DHT22;34178;50.904;11.560;2023-07-29T02:29:17;16.80;99.90
48376;DHT22;34178;50.904;11.560;2023-07-29T02:31:43;16.70;99.90
48376;DHT22;34178;50.904;11.560;2023-07-29T02:34:09;16.70;99.90
48376;DHT22;34178;50.904;11.560;2023-07-29T02:36:35;16.70;99.90
48376;DHT22;34178;50.904;11.560;2023-07-29T02:39:01;16.70;99.90
48376;DHT22;34178;50.904;11.560;2023-07-29T02:41:26;16.60;99.90
48376;DHT22;34178;50.904;11.560;2023-07-29T02:43:52;16.70;99.90
48376;DHT22;34178;50.904;11.560;2023-07-29T02:46:18;16.70;99.90
48376;DHT22;34178;50.904;11.560;2023-07-29T02:48:44;16.60;99.90
48376;DHT22;34178;50.904;11.560;2023-07-29T02:51:10;16.60;99.90
48376;DHT22;34178;50.904;11.560;2023-07-29T02:53:36;16.50;99.90
48376;DHT22;34178;50.904;11.560;2023-07-29T02:56:03;16.50;99.90
48376;DHT22;34178;50.904;11.560;2023-07-29T02:58:29;16.50;99.90
48376;DHT22;34178;50.904;11.560;2023-07-29T03:01:01;16.50;99.90
48376;DHT22;34178;50.904;11.560;2023-07-29T03:03:27;16.50;99.90
48376;DHT22;34178;50.904;11.560;2023-07-29T03:06:04;16.40;99.90
48376;DHT22;34178;50.904;11.560;2023-07-29T03:08:30;16.40;99.90
48376;DHT22;34178;50.904;11.560;2023-07-29T03:11:05;16.30;99.90
48376;DHT22;34178;50.904;11.560;2023-07-29T03:13:31;16.20;99.90
48376;DHT22;34178;50.904;11.560;2023-07-29T03:16:10;16.20;99.90
48376;DHT22;34178;50.904;11.560;2023-07-29T03:18:36;16.20;99.90
48376;DHT22;34178;50.904;11.560;2023-07-29T03:21:02;16.20;99.90
48376;DHT22;34178;50.904;11.560;2023-07-29T03:23:29;16.20;99.90
48376;DHT22;34178;50.904;11.560;2023-07-29T03:25:56;16.20;99.90
48376;DHT22;34178;50.904;11.560;2023-07-29T03:28:26;16.10;99.90
48376;DHT22;34178;50.904;11.560;2023-07-29T03:30:53;16.10;99.90
48376;DHT22;34178;50.904;11.560;2023-07-29T03:33:19;16.10;99.90
48376;DHT22;34178;50.904;11.560;2023-07-29T03:35:45;16.00;99.90
48376;DHT22;34178;50.904;11.560;2023-07-29T03:38:11;16.00;99.90
48376;DHT22;34178;50.904;11.560;2023-07-29T03:40:41;16.00;99.90
48376;DHT22;34178;50.904;11.560;2023-07-29T03:43:07;16.00;99.90
48376;DHT22;34178;50.904;11.560;2023-07-29T03:45:34;16.10;99.90
48376;DHT22;34178;50.904;11.560;2023-07-29T03:48:00;16.10;99.90
48376;DHT22;34178;50.904;11.560;2023-07-29T03:50:26;16.10;99.90
48376;DHT22;34178;50.904;11.560;2023-07-29T03:52:52;16.00;99.90
48376;DHT22;34178;50.904;11.560;2023-07-29T03:55:18;16.00;99.90
48376;DHT22;34178;50.904;11.560;2023-07-29T03:57:44;16.00;99.90
48376;DHT22;34178;50.904;11.560;2023-07-29T04:00:10;16.00;99.90
48376;DHT22;34178;50.904;11.560;2023-07-29T04:02:36;16.10;99.90
48376;DHT22;34178;50.904;11.560;2023-07-29T04:05:05;16.10;99.90
48376;DHT22;34178;50.904;11.560;2023-07-29T04:07:35;16.10;99.90
48376;DHT22;34178;50.904;11.560;2023-07-29T04:10:01;16.10;99.90
48376;DHT22;34178;50.904;11.560;2023-07-29T04:12:27;16.10;99.90
48376;DHT22;34178;50.904;11.560;2023-07-29T04:14:53;16.10;99.90
48376;DHT22;34178;50.904;11.560;2023-07-29T04:17:19;16.10;99.90
48376;DHT22;34178;50.904;11.560;2023-07-29T04:19:44;16.10;99.90
48376;DHT22;34178;50.904;11.560;2023-07-29T04:22:10;16.20;99.90
48376;DHT22;34178;50.904;11.560;2023-07-29T04:24:36;16.30;99.90
48376;DHT22;34178;50.904;11.560;2023-07-29T04:27:02;16.30;99.90
48376;DHT22;34178;50.904;11.560;2023-07-29T04:29:28;16.30;99.90
48376;DHT22;34178;50.904;11.560;2023-07-29T04:31:54;16.40;99.90
48376;DHT22;34178;50.904;11.560;2023-07-29T04:34:20;16.40;99.90
48376;DHT22;34178;50.904;11.560;2023-07-29T04:36:46;16.40;99.90
48376;DHT22;34178;50.904;11.560;2023-07-29T04:39:12;16.50;99.90
48376;DHT22;34178;50.904;11.560;2023-07-29T04:41:38;16.60;99.90
48376;DHT22;34178;50.904;11.560;2023-07-29T04:44:03;16.70;99.90
48376;DHT22;34178;50.904;11.560;2023-07-29T04:46:29;16.80;99.90
48376;DHT22;34178;50.904;11.560;2023-07-29T04:48:55;16.80;99.90
48376;DHT22;34178;50.904;11.560;2023-07-29T04:51:21;16.90;99.90
48376;DHT22;34178;50.904;11.560;2023-07-29T04:53:47;16.90;99.90
48376;DHT22;34178;50.904;11.560;2023-07-29T04:56:12;17.00;99.90
48376;DHT22;34178;50.904;11.560;2023-07-29T04:58:38;17.10;99.90
48376;DHT22;34178;50.904;11.560;2023-07-29T05:01:04;17.10;99.90
48376;DHT22;34178;50.904;11.560;2023-07-29T05:03:30;17.30;99.90
48376;DHT22;34178;50.904;11.560;2023-07-29T05:05:57;17.30;99.90
48376;DHT22;34178;50.904;11.560;2023-07-29T05:08:23;17.40;99.90
48376;DHT22;34178;50.904;11.560;2023-07-29T05:10:50;17.50;99.90
48376;DHT22;34178;50.904;11.560;2023-07-29T05:13:16;17.60;99.90
48376;DHT22;34178;50.904;11.560;2023-07-29T05:15:42;17.70;99.90
48376;DHT22;34178;50.904;11.560;2023-07-29T05:18:08;17.80;99.90
48376;DHT22;34178;50.904;11.560;2023-07-29T05:20:33;18.00;99.90
48376;DHT22;34178;50.904;11.560;2023-07-29T05:22:59;18.20;99.90
48376;DHT22;34178;50.904;11.560;2023-07-29T05:25:26;18.40;99.90
48376;DHT22;34178;50.904;11.560;2023-07-29T05:27:52;18.60;99.90
48376;DHT22;34178;50.904;11.560;2023-07-29T05:30:17;18.80;99.90
48376;DHT22;34178;50.904;11.560;2023-07-29T05:32:43;19.00;99.90
48376;DHT22;34178;50.904;11.560;2023-07-29T05:35:09;19.10;99.90
48376;DHT22;34178;50.904;11.560;2023-07-29T05:37:37;19.40;99.90
48376;DHT22;34178;50.904;11.560;2023-07-29T05:40:04;19.60;99.90
48376;DHT22;34178;50.904;11.560;2023-07-29T05:42:30;19.90;99.90
48376;DHT22;34178;50.904;11.560;2023-07-29T05:44:56;20.10;99.90
48376;DHT22;34178;50.904;11.560;2023-07-29T05:47:21;20.30;99.90
48376;DHT22;34178;50.904;11.560;2023-07-29T05:49:47;20.40;99.90
48376;DHT22;34178;50.904;11.560;2023-07-29T05:52:12;20.60;99.90
48376;DHT22;34178;50.904;11.560;2023-07-29T05:54:38;20.70;99.90
48376;DHT22;34178;50.904;11.560;2023-07-29T05:57:04;20.80;99.90
48376;DHT22;34178;50.904;11.560;2023-07-29T05:59:30;20.80;99.90
48376;DHT22;34178;50.904;11.560;2023-07-29T06:01:56;20.80;99.90
48376;DHT22;34178;50.904;11.560;2023-07-29T06:04:22;20.70;99.90
48376;DHT22;34178;50.904;11.560;2023-07-29T06:06:48;20.80;99.90
48376;DHT22;34178;50.904;11.560;2023-07-29T06:09:13;20.80;99.90
48376;DHT22;34178;50.904;11.560;2023-07-29T06:11:39;20.80;99.90
48376;DHT22;34178;50.904;11.560;2023-07-29T06:14:05;20.80;99.90
48376;DHT22;34178;50.904;11.560;2023-07-29T06:16:30;21.00;99.90
48376;DHT22;34178;50.904;11.560;2023-07-29T06:18:57;21.20;99.90
48376;DHT22;34178;50.904;11.560;2023-07-29T06:21:23;21.30;99.90
48376;DHT22;34178;50.904;11.560;2023-07-29T06:23:49;21.40;99.90
48376;DHT22;34178;50.904;11.560;2023-07-29T06:26:14;21.60;99.90
48376;DHT22;34178;50.904;11.560;2023-07-29T06:28:40;21.50;99.90
48376;DHT22;34178;50.904;11.560;2023-07-29T06:31:06;21.70;99.90
48376;DHT22;34178;50.904;11.560;2023-07-29T06:33:31;21.80;99.90
48376;DHT22;34178;50.904;11.560;2023-07-29T06:35:57;21.90;99.90
48376;DHT22;34178;50.904;11.560;2023-07-29T06:38:23;22.10;99.90
48376;DHT22;34178;50.904;11.560;2023-07-29T06:40:49;22.00;99.90
48376;DHT22;34178;50.904;11.560;2023-07-29T06:43:14;22.00;99.90
48376;DHT22;34178;50.904;11.560;2023-07-29T06:45:40;22.10;99.90
48376;DHT22;34178;50.904;11.560;2023-07-29T06:48:06;22.00;99.90
48376;DHT22;34178;50.904;11.560;2023-07-29T06:50:31;22.00;99.90
48376;DHT22;34178;50.904;11.560;2023-07-29T06:52:57;21.90;99.90
48376;DHT22;34178;50.904;11.560;2023-07-29T06:55:23;21.80;99.90
48376;DHT22;34178;50.904;11.560;2023-07-29T06:57:48;21.70;99.90
48376;DHT22;34178;50.904;11.560;2023-07-29T07:00:14;21.60;99.90
48376;DHT22;34178;50.904;11.560;2023-07-29T07:02:40;21.60;99.90
48376;DHT22;34178;50.904;11.560;2023-07-29T07:05:07;21.60;99.90
48376;DHT22;34178;50.904;11.560;2023-07-29T07:07:32;21.60;99.90
48376;DHT22;34178;50.904;11.560;2023-07-29T07:09:58;21.60;99.90
48376;DHT22;34178;50.904;11.560;2023-07-29T07:12:24;21.60;99.90
48376;DHT22;34178;50.904;11.560;2023-07-29T07:14:50;21.60;99.90
48376;DHT22;34178;50.904;11.560;2023-07-29T07:17:15;21.60;99.90
48376;DHT22;34178;50.904;11.560;2023-07-29T07:19:41;21.70;99.90
48376;DHT22;34178;50.904;11.560;2023-07-29T07:22:07;21.80;99.90
48376;DHT22;34178;50.904;11.560;2023-07-29T07:24:33;21.90;99.90
48376;DHT22;34178;50.904;11.560;2023-07-29T07:26:58;21.90;99.90
48376;DHT22;34178;50.904;11.560;2023-07-29T07:29:24;21.90;99.90
48376;DHT22;34178;50.904;11.560;2023-07-29T07:31:52;21.90;99.90
48376;DHT22;34178;50.904;11.560;2023-07-29T07:34:18;21.90;99.90
48376;DHT22;34178;50.904;11.560;2023-07-29T07:36:44;22.00;99.90
48376;DHT22;34178;50.904;11.560;2023-07-29T07:39:10;22.10;99.90
48376;DHT22;34178;50.904;11.560;2023-07-29T07:41:36;22.40;99.90
48376;DHT22;34178;50.904;11.560;2023-07-29T07:44:01;22.70;99.90
48376;DHT22;34178;50.904;11.560;2023-07-29T07:46:28;22.90;99.90
48376;DHT22;34178;50.904;11.560;2023-07-29T07:48:54;23.00;99.90
48376;DHT22;34178;50.904;11.560;2023-07-29T07:51:20;23.10;99.90
48376;DHT22;34178;50.904;11.560;2023-07-29T07:53:45;23.20;99.90
48376;DHT22;34178;50.904;11.560;2023-07-29T07:56:11;23.20;99.90
48376;DHT22;34178;50.904;11.560;2023-07-29T07:58:37;23.10;99.90
48376;DHT22;34178;50.904;11.560;2023-07-29T08:01:04;23.00;99.90
48376;DHT22;34178;50.904;11.560;2023-07-29T08:03:30;23.10;99.90
48376;DHT22;34178;50.904;11.560;2023-07-29T08:05:56;23.30;99.90
48376;DHT22;34178;50.904;11.560;2023-07-29T08:08:22;23.30;99.90
48376;DHT22;34178;50.904;11.560;2023-07-29T08:10:47;23.50;99.90
48376;DHT22;34178;50.904;11.560;2023-07-29T08:13:13;23.60;99.90
48376;DHT22;34178;50.904;11.560;2023-07-29T08:15:39;23.70;99.90
48376;DHT22;34178;50.904;11.560;2023-07-29T08:18:06;23.90;99.90
48376;DHT22;34178;50.904;11.560;2023-07-29T08:20:32;24.10;99.90
48376;DHT22;34178;50.904;11.560;2023-07-29T08:22:58;24.00;99.90
48376;DHT22;34178;50.904;11.560;2023-07-29T08:25:24;24.00;99.90
48376;DHT22;34178;50.904;11.560;2023-07-29T08:27:49;24.10;99.90
48376;DHT22;34178;50.904;11.560;2023-07-29T08:30:15;24.10;99.90
48376;DHT22;34178;50.904;11.560;2023-07-29T08:32:41;24.10;99.90
48376;DHT22;34178;50.904;11.560;2023-07-29T08:35:07;23.90;99.90
48376;DHT22;34178;50.904;11.560;2023-07-29T08:37:33;23.90;99.90
48376;DHT22;34178;50.904;11.560;2023-07-29T08:39:59;23.70;99.90
48376;DHT22;34178;50.904;11.560;2023-07-29T08:42:29;23.60;99.90
48376;DHT22;34178;50.904;11.560;2023-07-29T08:44:56;23.40;99.90
48376;DHT22;34178;50.904;11.560;2023-07-29T08:47:24;23.30;99.90
48376;DHT22;34178;50.904;11.560;2023-07-29T08:49:51;23.20;99.90
48376;DHT22;34178;50.904;11.560;2023-07-29T08:52:18;23.30;99.90
48376;DHT22;34178;50.904;11.560;2023-07-29T08:54:44;23.50;99.90
48376;DHT22;34178;50.904;11.560;2023-07-29T08:57:10;23.40;99.90
48376;DHT22;34178;50.904;11.560;2023-07-29T08:59:36;23.50;99.90
48376;DHT22;34178;50.904;11.560;2023-07-29T09:02:02;23.40;99.90
48376;DHT22;34178;50.904;11.560;2023-07-29T09:04:28;23.30;99.90
48376;DHT22;34178;50.904;11.560;2023-07-29T09:06:56;23.30;99.90
48376;DHT22;34178;50.904;11.560;2023-07-29T09:09:22;23.30;99.90
48376;DHT22;34178;50.904;11.560;2023-07-29T09:11:48;23.20;99.90
48376;DHT22;34178;50.904;11.560;2023-07-29T09:14:14;23.10;99.90
48376;DHT22;34178;50.904;11.560;2023-07-29T09:16:40;23.00;99.90
48376;DHT22;34178;50.904;11.560;2023-07-29T09:19:06;23.20;99.90
48376;DHT22;34178;50.904;11.560;2023-07-29T09:21:32;23.30;99.90
48376;DHT22;34178;50.904;11.560;2023-07-29T09:24:02;23.20;99.90
48376;DHT22;34178;50.904;11.560;2023-07-29T09:26:29;23.00;99.90
48376;DHT22;34178;50.904;11.560;2023-07-29T09:28:57;22.90;99.90
48376;DHT22;34178;50.904;11.560;2023-07-29T09:31:25;23.00;99.90
48376;DHT22;34178;50.904;11.560;2023-07-29T09:34:05;23.00;99.90
48376;DHT22;34178;50.904;11.560;2023-07-29T09:36:32;23.20;99.90
48376;DHT22;34178;50.904;11.560;2023-07-29T09:38:58;23.20;99.90
48376;DHT22;34178;50.904;11.560;2023-07-29T09:41:25;23.30;99.90
48376;DHT22;34178;50.904;11.560;2023-07-29T09:44:02;23.30;99.90
48376;DHT22;34178;50.904;11.560;2023-07-29T09:46:37;23.30;99.90
48376;DHT22;34178;50.904;11.560;2023-07-29T09:49:07;23.40;99.90
48376;DHT22;34178;50.904;11.560;2023-07-29T09:51:39;23.50;99.90
48376;DHT22;34178;50.904;11.560;2023-07-29T09:54:05;23.50;99.90
48376;DHT22;34178;50.904;11.560;2023-07-29T09:56:31;23.50;99.90
48376;DHT22;34178;50.904;11.560;2023-07-29T09:58:57;23.60;99.90
48376;DHT22;34178;50.904;11.560;2023-07-29T10:01:23;23.90;99.90
48376;DHT22;34178;50.904;11.560;2023-07-29T10:03:49;24.00;99.90
48376;DHT22;34178;50.904;11.560;2023-07-29T10:06:15;23.80;99.90
48376;DHT22;34178;50.904;11.560;2023-07-29T10:08:43;23.70;99.90
48376;DHT22;34178;50.904;11.560;2023-07-29T10:11:10;23.80;99.90
48376;DHT22;34178;50.904;11.560;2023-07-29T10:13:37;23.90;99.90
48376;DHT22;34178;50.904;11.560;2023-07-29T10:16:03;24.00;99.90
48376;DHT22;34178;50.904;11.560;2023-07-29T10:18:31;24.20;99.90
48376;DHT22;34178;50.904;11.560;2023-07-29T10:20:58;24.30;99.90
48376;DHT22;34178;50.904;11.560;2023-07-29T10:23:25;24.30;99.90
48376;DHT22;34178;50.904;11.560;2023-07-29T10:26:02;24.30;99.90
48376;DHT22;34178;50.904;11.560;2023-07-29T10:28:32;24.20;99.90
48376;DHT22;34178;50.904;11.560;2023-07-29T10:30:59;24.20;99.90
48376;DHT22;34178;50.904;11.560;2023-07-29T10:33:25;23.90;99.90
48376;DHT22;34178;50.904;11.560;2023-07-29T10:35:53;23.60;99.90
48376;DHT22;34178;50.904;11.560;2023-07-29T10:38:24;23.50;99.90
48376;DHT22;34178;50.904;11.560;2023-07-29T10:40:55;23.50;99.90
48376;DHT22;34178;50.904;11.560;2023-07-29T10:45:56;23.10;99.90
48376;DHT22;34178;50.904;11.560;2023-07-29T10:53:46;23.30;99.90
48376;DHT22;34178;50.904;11.560;2023-07-29T10:56:13;23.50;99.90
48376;DHT22;34178;50.904;11.560;2023-07-29T10:58:38;23.50;99.90
48376;DHT22;34178;50.904;11.560;2023-07-29T11:01:13;23.80;99.90
48376;DHT22;34178;50.904;11.560;2023-07-29T11:03:38;24.00;99.90
48376;DHT22;34178;50.904;11.560;2023-07-29T11:06:04;24.20;99.90
48376;DHT22;34178;50.904;11.560;2023-07-29T11:08:31;24.30;99.90
48376;DHT22;34178;50.904;11.560;2023-07-29T11:13:29;24.90;99.90
48376;DHT22;34178;50.904;11.560;2023-07-29T11:15:55;25.40;99.90
48376;DHT22;34178;50.904;11.560;2023-07-29T11:18:28;25.70;99.90
48376;DHT22;34178;50.904;11.560;2023-07-29T11:20:55;25.70;99.90
48376;DHT22;34178;50.904;11.560;2023-07-29T11:23:31;25.50;99.90
48376;DHT22;34178;50.904;11.560;2023-07-29T11:25:57;25.20;99.90
48376;DHT22;34178;50.904;11.560;2023-07-29T11:28:24;25.00;99.90
48376;DHT22;34178;50.904;11.560;2023-07-29T11:30:50;25.00;99.90
48376;DHT22;34178;50.904;11.560;2023-07-29T11:33:26;24.90;99.90
48376;DHT22;34178;50.904;11.560;2023-07-29T11:35:54;25.00;99.90
48376;DHT22;34178;50.904;11.560;2023-07-29T11:38:20;24.90;99.90
48376;DHT22;34178;50.904;11.560;2023-07-29T11:40:58;25.00;99.90
48376;DHT22;34178;50.904;11.560;2023-07-29T11:43:24;25.00;99.90
48376;DHT22;34178;50.904;11.560;2023-07-29T11:45:51;25.20;99.90
48376;DHT22;34178;50.904;11.560;2023-07-29T11:48:17;25.30;99.10
48376;DHT22;34178;50.904;11.560;2023-07-29T11:50:43;25.40;99.20
48376;DHT22;34178;50.904;11.560;2023-07-29T11:53:09;25.60;98.60
48376;DHT22;34178;50.904;11.560;2023-07-29T11:55:35;25.60;98.30
48376;DHT22;34178;50.904;11.560;2023-07-29T14:07:28;26.00;92.50
48376;DHT22;34178;50.904;11.560;2023-07-29T14:09:54;25.80;92.40
48376;DHT22;34178;50.904;11.560;2023-07-29T14:12:20;25.60;92.90
48376;DHT22;34178;50.904;11.560;2023-07-29T14:14:45;25.50;93.10
48376;DHT22;34178;50.904;11.560;2023-07-29T14:17:11;25.30;93.00
48376;DHT22;34178;50.904;11.560;2023-07-29T14:19:37;25.10;93.30
48376;DHT22;34178;50.904;11.560;2023-07-29T14:22:03;25.00;93.60
48376;DHT22;34178;50.904;11.560;2023-07-29T14:24:29;25.00;93.70
48376;DHT22;34178;50.904;11.560;2023-07-29T14:26:54;24.80;94.00
48376;DHT22;34178;50.904;11.560;2023-07-29T14:29:20;24.70;94.20
48376;DHT22;34178;50.904;11.560;2023-07-29T14:31:46;24.60;94.00
48376;DHT22;34178;50.904;11.560;2023-07-29T14:34:11;24.60;94.70
48376;DHT22;34178;50.904;11.560;2023-07-29T14:36:37;24.50;94.90
48376;DHT22;34178;50.904;11.560;2023-07-29T14:39:03;24.50;95.10
48376;DHT22;34178;50.904;11.560;2023-07-29T14:41:30;24.40;96.00
48376;DHT22;34178;50.904;11.560;2023-07-29T14:43:56;24.00;97.30
48376;DHT22;34178;50.904;11.560;2023-07-29T14:46:22;23.20;99.90
48376;DHT22;34178;50.904;11.560;2023-07-29T14:48:48;22.60;99.90
48376;DHT22;34178;50.904;11.560;2023-07-29T14:51:14;21.80;99.90
48376;DHT22;34178;50.904;11.560;2023-07-29T14:53:40;21.40;99.90
48376;DHT22;34178;50.904;11.560;2023-07-29T14:56:05;19.50;99.90
48376;DHT22;34178;50.904;11.560;2023-07-29T14:58:31;18.30;99.90
48376;DHT22;34178;50.904;11.560;2023-07-29T15:00:56;17.90;99.90
48376;DHT22;34178;50.904;11.560;2023-07-29T15:03:23;17.70;99.90
48376;DHT22;34178;50.904;11.560;2023-07-29T15:05:49;17.80;99.90
48376;DHT22;34178;50.904;11.560;2023-07-29T15:08:15;17.90;99.90
48376;DHT22;34178;50.904;11.560;2023-07-29T15:10:41;18.00;99.90
48376;DHT22;34178;50.904;11.560;2023-07-29T15:13:10;18.20;99.90
48376;DHT22;34178;50.904;11.560;2023-07-29T15:15:35;18.60;99.90
48376;DHT22;34178;50.904;11.560;2023-07-29T15:18:01;18.60;99.90
48376;DHT22;34178;50.904;11.560;2023-07-29T15:20:27;18.50;99.90
48376;DHT22;34178;50.904;11.560;2023-07-29T15:22:52;18.40;99.90
48376;DHT22;34178;50.904;11.560;2023-07-29T15:25:18;18.50;99.90
48376;DHT22;34178;50.904;11.560;2023-07-29T15:27:44;18.90;99.90
48376;DHT22;34178;50.904;11.560;2023-07-29T15:30:09;19.30;99.90
48376;DHT22;34178;50.904;11.560;2023-07-29T15:32:37;19.30;99.90
48376;DHT22;34178;50.904;11.560;2023-07-29T15:35:03;19.30;99.90
48376;DHT22;34178;50.904;11.560;2023-07-29T15:37:29;19.60;99.90
48376;DHT22;34178;50.904;11.560;2023-07-29T15:39:54;20.20;99.90
48376;DHT22;34178;50.904;11.560;2023-07-29T15:42:20;20.70;99.90
48376;DHT22;34178;50.904;11.560;2023-07-29T15:44:46;20.90;99.90
48376;DHT22;34178;50.904;11.560;2023-07-29T15:47:12;20.50;99.90
48376;DHT22;34178;50.904;11.560;2023-07-29T15:49:41;20.20;99.90
48376;DHT22;34178;50.904;11.560;2023-07-29T15:52:07;20.30;99.90
48376;DHT22;34178;50.904;11.560;2023-07-29T15:54:34;22.00;99.90
48376;DHT22;34178;50.904;11.560;2023-07-29T15:56:59;23.70;99.90
48376;DHT22;34178;50.904;11.560;2023-07-29T15:59:25;25.50;99.90
48376;DHT22;34178;50.904;11.560;2023-07-29T16:01:51;26.20;99.90
48376;DHT22;34178;50.904;11.560;2023-07-29T16:04:17;29.90;99.90
48376;DHT22;34178;50.904;11.560;2023-07-29T16:06:43;31.50;99.90
48376;DHT22;34178;50.904;11.560;2023-07-29T16:09:08;31.20;97.70
48376;DHT22;34178;50.904;11.560;2023-07-29T16:11:34;32.80;96.60
48376;DHT22;34178;50.904;11.560;2023-07-29T16:14:00;33.90;95.00
48376;DHT22;34178;50.904;11.560;2023-07-29T16:16:27;35.60;91.90
48376;DHT22;34178;50.904;11.560;2023-07-29T16:18:53;36.90;91.20
48376;DHT22;34178;50.904;11.560;2023-07-29T16:21:19;38.20;87.90
48376;DHT22;34178;50.904;11.560;2023-07-29T16:23:44;38.70;79.60
48376;DHT22;34178;50.904;11.560;2023-07-29T16:26:10;39.00;79.90
48376;DHT22;34178;50.904;11.560;2023-07-29T16:28:37;39.80;75.70
48376;DHT22;34178;50.904;11.560;2023-07-29T16:31:03;39.70;74.30
48376;DHT22;34178;50.904;11.560;2023-07-29T16:33:29;38.80;73.10
48376;DHT22;34178;50.904;11.560;2023-07-29T16:35:54;39.30;74.10
48376;DHT22;34178;50.904;11.560;2023-07-29T16:38:20;39.80;79.40
48376;DHT22;34178;50.904;11.560;2023-07-29T16:40:46;39.80;79.30
48376;DHT22;34178;50.904;11.560;2023-07-29T16:43:12;38.70;83.70
48376;DHT22;34178;50.904;11.560;2023-07-29T16:45:37;36.90;85.70
48376;DHT22;34178;50.904;11.560;2023-07-29T16:48:03;35.10;84.50
48376;DHT22;34178;50.904;11.560;2023-07-29T16:50:29;34.30;90.50
48376;DHT22;34178;50.904;11.560;2023-07-29T16:52:55;33.90;90.00
48376;DHT22;34178;50.904;11.560;2023-07-29T16:55:22;34.50;86.50
48376;DHT22;34178;50.904;11.560;2023-07-29T16:57:48;36.40;90.00
48376;DHT22;34178;50.904;11.560;2023-07-29T17:00:14;38.10;84.10
48376;DHT22;34178;50.904;11.560;2023-07-29T17:02:40;39.50;84.30
48376;DHT22;34178;50.904;11.560;2023-07-29T17:05:06;39.90;84.50
48376;DHT22;34178;50.904;11.560;2023-07-29T17:07:32;40.00;75.70
48376;DHT22;34178;50.904;11.560;2023-07-29T17:09:58;40.20;74.20
48376;DHT22;34178;50.904;11.560;2023-07-29T17:12:24;39.30;69.20
48376;DHT22;34178;50.904;11.560;2023-07-29T17:14:50;37.80;69.50
48376;DHT22;34178;50.904;11.560;2023-07-29T17:17:16;36.80;71.00
48376;DHT22;34178;50.904;11.560;2023-07-29T17:19:41;37.60;75.90
48376;DHT22;34178;50.904;11.560;2023-07-29T17:22:07;36.50;71.80
48376;DHT22;34178;50.904;11.560;2023-07-29T17:24:33;35.00;78.20
48376;DHT22;34178;50.904;11.560;2023-07-29T17:26:58;35.80;75.60
48376;DHT22;34178;50.904;11.560;2023-07-29T17:29:25;35.40;76.40
48376;DHT22;34178;50.904;11.560;2023-07-29T17:31:51;34.60;83.20